Time;durP1;ratioP1;P1;durP2;ratioP2;P2;SDS_P1;SDS_P2;PMS_P1;PMS_P2;Temp;Humidity;BMP_temperature;BMP_pressure;BME280_temperature;BME280_humidity;BME280_pressure;Samples;Min_cycle;Max_cycle;Signal;HPM_P1;HPM_P2
2023/12/19 00:00:47;;;;;;;61.63;33.25;;;7.80;99.90;;;;;;5023382;28;20121;-67
2023/12/19 00:03:13;;;;;;;54.97;30.25;;;7.80;99.90;;;;;;5024488;28;20043;-66
2023/12/19 00:05:42;;;;;;;53.95;30.95;;;7.90;99.90;;;;;;5024474;28;20068;-66
2023/12/19 00:08:08;;;;;;;55.08;30.58;;;7.80;99.90;;;;;;5022900;28;20120;-66
2023/12/19 00:10:34;;;;;;;52.08;29.17;;;7.90;99.90;;;;;;5023784;28;20403;-66
2023/12/19 00:13:00;;;;;;;50.35;27.90;;;7.90;99.90;;;;;;5023802;28;20156;-66
2023/12/19 00:15:26;;;;;;;47.80;25.77;;;7.80;99.90;;;;;;5021220;28;20037;-66
2023/12/19 00:17:51;;;;;;;42.25;24.48;;;7.90;99.90;;;;;;5022604;28;20071;-66
2023/12/19 00:20:17;;;;;;;40.25;25.30;;;7.90;99.90;;;;;;5027237;28;20095;-66
2023/12/19 00:22:43;;;;;;;41.13;24.27;;;7.90;99.90;;;;;;5021151;28;20084;-66
2023/12/19 00:25:09;;;;;;;40.88;24.10;;;7.90;99.90;;;;;;5021916;28;20037;-66
2023/12/19 00:27:34;;;;;;;46.80;25.55;;;7.90;99.90;;;;;;5021663;28;20042;-66
2023/12/19 00:30:00;;;;;;;37.95;24.20;;;7.90;99.90;;;;;;5019781;28;20073;-66
2023/12/19 00:32:26;;;;;;;47.38;25.35;;;7.90;99.90;;;;;;5023130;28;20050;-66
2023/12/19 00:34:52;;;;;;;43.53;25.10;;;7.90;99.90;;;;;;5024830;28;20033;-67
2023/12/19 00:37:25;;;;;;;42.78;24.02;;;7.90;99.90;;;;;;5022345;28;20048;-66
2023/12/19 00:39:50;;;;;;;41.50;24.17;;;7.90;99.90;;;;;;5021191;28;20045;-66
2023/12/19 00:42:16;;;;;;;39.05;24.00;;;7.90;99.90;;;;;;5022243;28;20045;-66
2023/12/19 00:44:41;;;;;;;42.55;25.65;;;7.90;99.90;;;;;;5022390;28;20038;-66
2023/12/19 00:47:07;;;;;;;40.35;24.98;;;8.40;99.90;;;;;;5023737;28;20132;-65
2023/12/19 00:49:32;;;;;;;47.75;26.33;;;7.90;99.90;;;;;;5019294;28;20087;-66
2023/12/19 00:52:00;;;;;;;44.65;26.13;;;7.90;99.90;;;;;;5024873;28;20056;-66
2023/12/19 00:54:26;;;;;;;43.58;25.67;;;7.90;99.90;;;;;;5023767;28;20390;-66
2023/12/19 00:56:51;;;;;;;46.53;25.90;;;7.90;99.90;;;;;;5018285;28;20049;-66
2023/12/19 00:59:17;;;;;;;36.58;23.40;;;7.80;99.90;;;;;;5021201;28;20132;-66
2023/12/19 01:01:42;;;;;;;36.60;23.15;;;7.90;99.90;;;;;;5021407;28;20053;-67
2023/12/19 01:04:09;;;;;;;37.60;23.77;;;7.90;99.90;;;;;;5022466;28;20040;-67
2023/12/19 01:06:35;;;;;;;38.28;23.45;;;7.80;99.90;;;;;;5020695;28;20045;-67
2023/12/19 01:09:01;;;;;;;34.70;22.05;;;7.80;99.90;;;;;;5020480;28;20052;-67
2023/12/19 01:11:26;;;;;;;32.00;21.95;;;7.80;99.90;;;;;;5024849;28;20648;-67
2023/12/19 01:13:52;;;;;;;34.53;23.15;;;7.80;99.90;;;;;;5023781;28;20049;-67
2023/12/19 01:16:18;;;;;;;34.88;23.05;;;7.80;99.90;;;;;;5025127;28;20049;-67
2023/12/19 01:18:43;;;;;;;36.55;23.75;;;7.80;99.90;;;;;;5021595;28;20033;-67
2023/12/19 01:21:09;;;;;;;36.22;22.95;;;7.80;99.90;;;;;;5021033;28;20454;-67
2023/12/19 01:23:34;;;;;;;32.38;23.17;;;7.80;99.90;;;;;;5020608;28;20038;-67
2023/12/19 01:26:00;;;;;;;33.92;22.25;;;7.80;99.90;;;;;;5018790;28;20038;-67
2023/12/19 01:28:25;;;;;;;32.50;22.83;;;7.80;99.90;;;;;;5022655;28;20095;-67
2023/12/19 01:30:51;;;;;;;30.63;19.73;;;7.80;99.90;;;;;;5020151;28;20079;-67
2023/12/19 01:33:17;;;;;;;29.90;20.25;;;7.80;99.90;;;;;;5020939;28;20053;-67
2023/12/19 01:35:42;;;;;;;32.55;20.88;;;7.80;99.90;;;;;;5022152;28;20058;-67
2023/12/19 01:38:09;;;;;;;31.00;19.48;;;7.80;99.90;;;;;;5021342;28;20040;-67
2023/12/19 01:40:35;;;;;;;27.42;19.05;;;7.80;99.90;;;;;;5022565;28;20041;-67
2023/12/19 01:43:01;;;;;;;29.77;19.15;;;7.80;99.90;;;;;;5026319;28;20045;-67
2023/12/19 01:45:28;;;;;;;29.88;18.98;;;7.80;99.90;;;;;;5017725;28;20046;-67
2023/12/19 01:47:54;;;;;;;31.50;19.67;;;7.80;99.90;;;;;;5022335;28;20699;-67
2023/12/19 01:50:20;;;;;;;27.80;18.60;;;7.80;99.90;;;;;;5023180;28;20030;-67
2023/12/19 01:52:50;;;;;;;27.50;18.95;;;7.80;99.90;;;;;;5020594;28;20048;-67
2023/12/19 01:55:19;;;;;;;28.60;19.33;;;7.80;99.90;;;;;;5023632;28;20132;-67
2023/12/19 01:57:44;;;;;;;30.13;19.55;;;7.80;99.90;;;;;;5024661;28;20045;-67
2023/12/19 02:00:14;;;;;;;31.92;20.38;;;7.80;99.90;;;;;;5022062;28;20034;-67
2023/12/19 02:02:41;;;;;;;29.60;19.30;;;7.90;99.90;;;;;;5022634;28;20108;-67
2023/12/19 02:05:10;;;;;;;31.45;21.52;;;7.80;99.90;;;;;;5024282;28;20041;-67
2023/12/19 02:07:35;;;;;;;30.48;19.58;;;7.80;99.90;;;;;;5023837;28;20484;-67
2023/12/19 02:10:01;;;;;;;30.73;19.92;;;7.80;99.90;;;;;;5019801;28;20061;-67
2023/12/19 02:12:27;;;;;;;27.10;19.23;;;7.80;99.90;;;;;;5022352;28;20045;-67
2023/12/19 02:14:53;;;;;;;31.70;19.92;;;7.80;99.90;;;;;;5019236;28;20073;-67
2023/12/19 02:17:21;;;;;;;26.60;19.30;;;7.80;99.90;;;;;;5024671;28;20037;-67
2023/12/19 02:19:48;;;;;;;24.40;17.83;;;7.80;99.90;;;;;;5028854;28;20116;-67
2023/12/19 02:22:14;;;;;;;23.48;16.10;;;7.90;99.90;;;;;;5025986;28;20718;-67
2023/12/19 02:24:40;;;;;;;27.02;18.25;;;7.80;99.90;;;;;;5025717;28;20037;-67
2023/12/19 02:27:06;;;;;;;23.95;17.52;;;7.80;99.90;;;;;;5023376;28;20140;-67
2023/12/19 02:29:41;;;;;;;25.05;17.50;;;7.80;99.90;;;;;;5024564;28;20067;-66
2023/12/19 02:32:07;;;;;;;23.25;17.08;;;7.80;99.90;;;;;;5024335;28;20046;-67
2023/12/19 02:34:33;;;;;;;23.35;16.70;;;7.70;99.90;;;;;;5022506;28;20038;-67
2023/12/19 02:36:58;;;;;;;25.95;17.92;;;7.80;99.90;;;;;;5025000;28;20037;-67
2023/12/19 02:39:24;;;;;;;26.17;18.40;;;7.80;99.90;;;;;;5024340;28;20037;-67
2023/12/19 02:41:49;;;;;;;26.00;17.88;;;7.80;99.90;;;;;;5022138;28;20472;-67
2023/12/19 02:44:15;;;;;;;25.33;16.92;;;7.80;99.90;;;;;;5028243;28;20037;-67
2023/12/19 02:46:41;;;;;;;22.13;16.35;;;7.80;99.90;;;;;;5023931;28;20052;-66
2023/12/19 02:49:06;;;;;;;23.10;15.70;;;8.00;99.90;;;;;;5026197;28;20060;-67
2023/12/19 02:51:32;;;;;;;22.88;16.60;;;7.70;99.90;;;;;;5025261;28;20084;-67
2023/12/19 02:53:58;;;;;;;22.27;16.42;;;7.80;99.90;;;;;;5021256;28;20100;-67
2023/12/19 02:56:24;;;;;;;22.67;15.90;;;7.80;99.90;;;;;;5026601;28;20041;-67
2023/12/19 02:58:51;;;;;;;21.77;14.98;;;7.80;99.90;;;;;;5040495;28;20037;-67
2023/12/19 03:01:17;;;;;;;17.73;14.23;;;7.80;99.90;;;;;;5024017;28;20072;-67
2023/12/19 03:03:43;;;;;;;18.63;13.80;;;8.00;99.90;;;;;;5025239;28;20042;-66
2023/12/19 03:06:12;;;;;;;16.38;12.85;;;7.70;99.90;;;;;;5025667;28;20052;-66
2023/12/19 03:08:38;;;;;;;16.90;13.07;;;7.70;99.90;;;;;;5021635;28;20065;-67
2023/12/19 03:11:03;;;;;;;14.60;12.73;;;7.70;99.90;;;;;;5027239;28;20041;-66
2023/12/19 03:13:29;;;;;;;17.15;13.63;;;7.70;99.90;;;;;;5023196;28;21484;-66
2023/12/19 03:15:55;;;;;;;17.80;14.20;;;7.70;99.90;;;;;;5023299;28;20049;-67
2023/12/19 03:18:25;;;;;;;16.60;13.15;;;7.70;99.90;;;;;;5009898;28;20462;-67
2023/12/19 03:20:54;;;;;;;16.70;13.27;;;7.60;99.90;;;;;;5021747;28;20527;-67
2023/12/19 03:23:21;;;;;;;17.10;13.57;;;7.70;99.90;;;;;;5023254;28;20388;-67
2023/12/19 03:25:46;;;;;;;18.45;13.98;;;7.70;99.90;;;;;;5022913;28;20044;-66
2023/12/19 03:28:12;;;;;;;18.77;14.02;;;7.70;99.90;;;;;;5025036;28;20034;-67
2023/12/19 03:30:38;;;;;;;19.13;14.02;;;7.70;99.90;;;;;;5025083;28;20038;-67
2023/12/19 03:33:04;;;;;;;18.58;13.38;;;7.80;99.90;;;;;;5024160;28;20037;-67
2023/12/19 03:35:29;;;;;;;19.15;13.52;;;7.70;99.90;;;;;;5026891;28;20040;-67
2023/12/19 03:37:55;;;;;;;18.25;13.13;;;7.70;99.90;;;;;;5022129;28;21701;-67
2023/12/19 03:40:20;;;;;;;17.95;13.57;;;7.70;99.90;;;;;;5024770;28;20069;-67
2023/12/19 03:42:46;;;;;;;17.08;12.73;;;7.70;99.90;;;;;;5023683;28;20040;-67
2023/12/19 03:45:13;;;;;;;20.98;13.80;;;7.70;99.90;;;;;;5020898;28;20033;-66
2023/12/19 03:47:39;;;;;;;17.80;13.93;;;7.70;99.90;;;;;;5020979;28;20366;-67
2023/12/19 03:50:06;;;;;;;17.17;13.73;;;7.70;99.90;;;;;;5037478;28;20044;-66
2023/12/19 03:52:31;;;;;;;18.15;13.02;;;7.70;99.90;;;;;;5020193;28;20449;-67
2023/12/19 03:54:57;;;;;;;17.77;13.88;;;7.80;99.90;;;;;;5025093;28;20139;-66
2023/12/19 03:57:23;;;;;;;18.95;13.60;;;7.70;99.90;;;;;;5022537;28;20437;-67
2023/12/19 03:59:49;;;;;;;19.95;14.52;;;7.70;99.90;;;;;;5023313;28;20140;-67
2023/12/19 04:02:15;;;;;;;18.85;14.63;;;7.70;99.90;;;;;;5021787;28;20120;-66
2023/12/19 04:04:41;;;;;;;17.95;14.32;;;7.70;99.90;;;;;;5017482;28;20033;-66
2023/12/19 04:07:08;;;;;;;18.27;14.05;;;7.70;99.90;;;;;;5021400;28;20067;-67
2023/12/19 04:09:33;;;;;;;17.23;13.68;;;7.70;99.90;;;;;;5023840;28;21537;-66
2023/12/19 04:12:02;;;;;;;18.30;14.38;;;7.70;99.90;;;;;;5022183;28;20045;-67
2023/12/19 04:14:29;;;;;;;17.38;13.68;;;7.70;99.90;;;;;;5022955;28;20042;-67
2023/12/19 04:16:54;;;;;;;18.60;14.32;;;7.70;99.90;;;;;;5025910;28;20100;-67
2023/12/19 04:19:21;;;;;;;19.35;14.45;;;7.70;99.90;;;;;;5022131;28;20404;-66
2023/12/19 04:21:48;;;;;;;18.58;13.80;;;7.70;99.90;;;;;;5020515;28;20038;-67
2023/12/19 04:24:14;;;;;;;18.00;14.50;;;7.70;99.90;;;;;;5019688;28;20041;-67
2023/12/19 04:26:42;;;;;;;15.50;13.30;;;7.70;99.90;;;;;;5021236;28;20225;-67
2023/12/19 04:29:08;;;;;;;17.23;13.75;;;7.70;99.90;;;;;;5020838;28;20053;-67
2023/12/19 04:31:34;;;;;;;17.50;13.27;;;7.70;99.90;;;;;;5020025;28;20071;-67
2023/12/19 04:34:00;;;;;;;18.08;12.23;;;7.70;99.90;;;;;;5020334;28;20061;-66
2023/12/19 04:36:25;;;;;;;16.50;12.50;;;7.70;99.90;;;;;;5018736;28;20045;-66
2023/12/19 04:38:52;;;;;;;19.33;13.20;;;7.70;99.90;;;;;;5019292;28;20048;-67
2023/12/19 04:41:17;;;;;;;16.10;13.48;;;7.70;99.90;;;;;;5024997;28;20052;-67
2023/12/19 04:43:43;;;;;;;15.07;12.32;;;7.70;99.90;;;;;;5022878;28;20046;-67
2023/12/19 04:46:09;;;;;;;18.00;13.30;;;7.80;99.90;;;;;;5018890;28;20045;-67
2023/12/19 04:48:35;;;;;;;21.80;13.95;;;7.80;99.90;;;;;;5002301;28;20100;-66
2023/12/19 04:51:00;;;;;;;18.08;13.90;;;7.70;99.90;;;;;;5022319;28;20458;-67
2023/12/19 04:53:26;;;;;;;17.70;13.63;;;7.80;99.90;;;;;;5020501;28;20030;-67
2023/12/19 04:55:52;;;;;;;17.60;13.57;;;7.70;99.90;;;;;;5019215;28;20045;-67
2023/12/19 04:58:18;;;;;;;17.38;12.57;;;7.70;99.90;;;;;;5035470;28;20037;-67
2023/12/19 05:00:43;;;;;;;15.52;12.27;;;7.70;99.90;;;;;;5019272;28;20048;-67
2023/12/19 05:03:09;;;;;;;18.60;13.20;;;7.70;99.90;;;;;;5018987;28;20092;-67
2023/12/19 05:05:35;;;;;;;16.08;13.32;;;7.90;99.90;;;;;;5020698;28;20060;-67
2023/12/19 05:08:01;;;;;;;18.27;12.23;;;7.70;99.90;;;;;;5024472;28;20070;-66
2023/12/19 05:10:26;;;;;;;15.15;11.50;;;7.70;99.90;;;;;;5006337;28;20128;-67
2023/12/19 05:12:52;;;;;;;15.18;12.15;;;7.70;99.90;;;;;;5019628;28;20488;-67
2023/12/19 05:15:17;;;;;;;18.58;12.13;;;7.80;99.90;;;;;;5020091;28;20089;-67
2023/12/19 05:17:43;;;;;;;14.93;11.85;;;7.70;99.90;;;;;;5023055;28;20045;-67
2023/12/19 05:20:09;;;;;;;16.40;11.45;;;7.80;99.90;;;;;;5020076;28;20069;-67
2023/12/19 05:22:35;;;;;;;14.30;11.45;;;7.80;99.90;;;;;;5007139;28;20034;-68
2023/12/19 05:25:01;;;;;;;16.08;11.60;;;7.80;99.90;;;;;;5033840;28;20037;-67
2023/12/19 05:27:26;;;;;;;15.15;10.85;;;7.80;99.90;;;;;;5019119;28;20041;-67
2023/12/19 05:29:52;;;;;;;13.25;10.13;;;7.80;99.90;;;;;;5018167;28;20041;-66
2023/12/19 05:32:18;;;;;;;14.55;10.75;;;7.90;99.90;;;;;;5019077;28;20051;-67
2023/12/19 05:34:43;;;;;;;12.60;10.52;;;7.80;99.90;;;;;;5021826;28;20085;-67
2023/12/19 05:37:09;;;;;;;14.63;10.48;;;7.80;99.90;;;;;;5024230;28;20614;-67
2023/12/19 05:39:35;;;;;;;12.80;10.13;;;7.80;99.90;;;;;;5022471;28;20034;-67
2023/12/19 05:42:01;;;;;;;12.30;10.05;;;7.80;99.90;;;;;;5022655;28;20083;-66
2023/12/19 05:44:27;;;;;;;12.43;10.05;;;7.90;99.90;;;;;;5039003;28;20048;-67
2023/12/19 05:46:52;;;;;;;11.48;9.73;;;7.80;99.90;;;;;;5021107;28;20408;-67
2023/12/19 05:49:18;;;;;;;11.43;9.20;;;7.80;99.90;;;;;;5019015;28;20034;-67
2023/12/19 05:51:44;;;;;;;12.00;9.35;;;7.90;99.90;;;;;;5023598;28;20044;-66
2023/12/19 05:54:10;;;;;;;11.57;9.20;;;8.50;99.90;;;;;;5022633;28;20038;-66
2023/12/19 05:56:36;;;;;;;12.27;9.93;;;7.90;99.90;;;;;;5019264;28;20061;-67
2023/12/19 05:59:02;;;;;;;11.00;9.48;;;7.90;99.90;;;;;;5021281;28;20037;-67
2023/12/19 06:01:28;;;;;;;11.00;9.05;;;7.90;99.90;;;;;;5026971;28;20049;-66
2023/12/19 06:03:54;;;;;;;11.80;8.70;;;7.90;99.90;;;;;;5024752;28;20041;-67
2023/12/19 06:06:21;;;;;;;11.15;9.23;;;8.00;99.90;;;;;;5023638;28;20078;-66
2023/12/19 06:08:47;;;;;;;10.02;8.52;;;7.90;99.90;;;;;;5029237;28;20041;-66
2023/12/19 06:11:13;;;;;;;10.13;8.07;;;7.90;99.90;;;;;;5025696;28;20067;-66
2023/12/19 06:13:39;;;;;;;11.00;8.02;;;7.90;99.90;;;;;;5026855;28;20045;-66
2023/12/19 06:16:05;;;;;;;10.52;9.43;;;7.90;99.90;;;;;;5027633;28;20037;-66
2023/12/19 06:18:32;;;;;;;10.85;8.13;;;7.90;99.90;;;;;;5022161;28;20078;-66
2023/12/19 06:21:00;;;;;;;11.43;9.05;;;7.90;99.90;;;;;;5029229;28;20120;-66
2023/12/19 06:23:27;;;;;;;10.73;8.18;;;7.90;99.90;;;;;;5024358;28;20033;-66
2023/12/19 06:25:52;;;;;;;10.60;8.43;;;7.90;99.90;;;;;;5023053;28;20045;-66
2023/12/19 06:28:18;;;;;;;10.77;8.68;;;8.00;99.90;;;;;;5026817;28;20029;-66
2023/12/19 06:30:44;;;;;;;9.77;8.73;;;7.90;99.90;;;;;;5022504;28;20112;-66
2023/12/19 06:33:10;;;;;;;10.00;7.35;;;8.00;99.90;;;;;;5027488;28;20034;-67
2023/12/19 06:35:40;;;;;;;9.57;7.82;;;7.90;99.90;;;;;;5022050;28;20046;-66
2023/12/19 06:38:06;;;;;;;9.40;7.32;;;8.10;99.90;;;;;;5023427;28;20392;-66
2023/12/19 06:40:32;;;;;;;7.60;6.47;;;7.90;99.90;;;;;;5022492;28;20041;-67
2023/12/19 06:42:58;;;;;;;6.68;5.90;;;7.90;99.90;;;;;;5003830;28;20145;-66
2023/12/19 06:45:23;;;;;;;8.38;6.95;;;7.90;99.90;;;;;;5022231;28;20049;-67
2023/12/19 06:47:52;;;;;;;8.95;6.63;;;8.00;99.90;;;;;;5019597;28;20044;-66
2023/12/19 06:50:18;;;;;;;7.22;6.47;;;8.00;99.90;;;;;;5021604;28;20038;-67
2023/12/19 06:52:44;;;;;;;7.70;6.90;;;8.00;99.90;;;;;;5019936;28;20041;-67
2023/12/19 06:55:13;;;;;;;8.13;6.25;;;8.00;99.90;;;;;;5023972;28;20834;-66
2023/12/19 06:57:39;;;;;;;8.18;7.28;;;8.00;99.90;;;;;;5022994;28;21727;-66
2023/12/19 07:00:06;;;;;;;8.48;7.18;;;8.00;99.90;;;;;;5022247;28;20052;-66
2023/12/19 07:02:47;;;;;;;9.75;7.40;;;8.00;99.90;;;;;;5022693;28;20048;-66
2023/12/19 07:05:13;;;;;;;9.10;7.57;;;8.00;99.90;;;;;;5016657;28;20045;-66
2023/12/19 07:07:39;;;;;;;8.48;7.47;;;8.00;99.90;;;;;;5022531;28;20137;-67
2023/12/19 07:10:05;;;;;;;8.65;7.50;;;8.00;99.90;;;;;;5021760;28;20448;-67
2023/12/19 07:12:31;;;;;;;8.82;7.68;;;8.00;99.90;;;;;;5022981;28;20084;-67
2023/12/19 07:14:56;;;;;;;11.32;8.50;;;8.00;99.90;;;;;;5022999;28;20045;-67
2023/12/19 07:17:22;;;;;;;9.32;8.02;;;8.30;99.90;;;;;;5020381;28;20083;-67
2023/12/19 07:19:48;;;;;;;9.80;7.88;;;8.00;99.90;;;;;;5021807;28;20121;-67
2023/12/19 07:22:14;;;;;;;10.60;7.85;;;8.30;99.90;;;;;;5022366;28;20087;-66
2023/12/19 07:24:39;;;;;;;8.75;7.65;;;8.00;99.90;;;;;;5023916;28;20037;-66
2023/12/19 07:27:06;;;;;;;9.15;7.93;;;8.10;99.90;;;;;;5020571;28;20041;-67
2023/12/19 07:29:31;;;;;;;9.85;8.13;;;8.10;99.90;;;;;;5020967;28;20140;-67
2023/12/19 07:31:58;;;;;;;12.50;8.55;;;8.10;99.90;;;;;;5025390;28;20120;-67
2023/12/19 07:34:24;;;;;;;9.00;8.07;;;8.10;99.90;;;;;;5024356;28;20044;-67
2023/12/19 07:36:51;;;;;;;9.70;7.88;;;8.10;99.90;;;;;;5022738;28;20038;-67
2023/12/19 07:39:17;;;;;;;11.18;8.90;;;8.10;99.90;;;;;;5020364;28;20116;-67
2023/12/19 07:41:43;;;;;;;10.38;8.52;;;8.10;99.90;;;;;;5024800;28;20041;-67
2023/12/19 07:44:14;;;;;;;10.18;8.57;;;8.20;99.90;;;;;;5017680;28;20033;-67
2023/12/19 07:46:41;;;;;;;10.32;8.65;;;8.20;99.90;;;;;;5021087;28;20045;-67
2023/12/19 07:49:08;;;;;;;9.80;8.48;;;8.20;99.90;;;;;;5019459;28;20033;-67
2023/12/19 07:51:34;;;;;;;9.90;8.90;;;8.20;99.90;;;;;;5022519;28;20041;-67
2023/12/19 07:54:00;;;;;;;9.95;8.82;;;8.20;99.90;;;;;;5021133;28;20469;-67
2023/12/19 07:56:25;;;;;;;11.25;9.27;;;8.10;99.90;;;;;;5021219;28;20049;-67
2023/12/19 07:58:51;;;;;;;10.05;8.68;;;8.20;99.90;;;;;;5037108;28;20065;-67
2023/12/19 08:01:17;;;;;;;9.88;8.35;;;8.20;99.90;;;;;;5018191;28;20081;-67
2023/12/19 08:03:44;;;;;;;11.30;8.27;;;8.20;99.90;;;;;;5021518;28;20034;-67
2023/12/19 08:06:11;;;;;;;11.20;9.45;;;8.20;99.90;;;;;;5019235;28;20484;-67
2023/12/19 08:08:37;;;;;;;10.10;8.13;;;8.20;99.90;;;;;;5017058;28;20472;-67
2023/12/19 08:11:03;;;;;;;10.20;8.68;;;8.30;99.90;;;;;;5020525;28;20049;-67
2023/12/19 08:13:29;;;;;;;10.18;8.90;;;8.30;99.90;;;;;;5019944;28;20044;-66
2023/12/19 08:15:54;;;;;;;10.45;8.68;;;8.30;99.90;;;;;;5019531;28;20053;-67
2023/12/19 08:18:20;;;;;;;10.73;8.98;;;8.30;99.90;;;;;;5018099;28;20030;-67
2023/12/19 08:20:46;;;;;;;11.18;8.52;;;8.30;99.90;;;;;;5018966;28;20092;-67
2023/12/19 08:23:12;;;;;;;11.20;9.38;;;8.40;99.90;;;;;;5019000;28;20077;-67
2023/12/19 08:25:41;;;;;;;11.13;9.32;;;8.30;99.90;;;;;;5022556;28;20048;-67
2023/12/19 08:28:08;;;;;;;11.00;9.45;;;8.40;99.90;;;;;;5037586;28;20041;-67
2023/12/19 08:30:34;;;;;;;10.10;8.90;;;8.40;99.90;;;;;;5018201;28;20056;-67
2023/12/19 08:33:00;;;;;;;10.43;8.55;;;8.40;99.90;;;;;;5036223;28;20120;-67
2023/12/19 08:35:27;;;;;;;11.40;9.27;;;8.40;99.90;;;;;;5002799;28;20040;-67
2023/12/19 08:37:53;;;;;;;10.38;8.90;;;8.40;99.90;;;;;;5019714;28;20085;-67
2023/12/19 08:40:19;;;;;;;11.18;9.38;;;8.40;99.90;;;;;;5017161;28;20064;-66
2023/12/19 08:42:45;;;;;;;10.05;8.60;;;8.40;99.90;;;;;;5019784;28;20044;-67
2023/12/19 08:45:19;;;;;;;12.20;9.05;;;8.40;99.90;;;;;;5022567;28;20041;-67
2023/12/19 08:47:46;;;;;;;12.10;9.55;;;8.50;99.90;;;;;;5023106;28;20496;-67
2023/12/19 08:50:12;;;;;;;9.15;8.23;;;8.40;99.90;;;;;;5022205;28;20511;-67
2023/12/19 08:52:48;;;;;;;11.05;8.93;;;8.50;99.90;;;;;;5019464;28;20041;-67
2023/12/19 08:55:13;;;;;;;9.07;7.85;;;8.50;99.90;;;;;;5022114;28;20045;-67
2023/12/19 08:57:44;;;;;;;10.20;8.55;;;8.60;99.90;;;;;;5018039;28;20381;-67
2023/12/19 09:00:12;;;;;;;9.45;8.00;;;8.50;99.90;;;;;;5016409;28;20072;-67
2023/12/19 09:02:42;;;;;;;10.10;8.65;;;8.60;99.90;;;;;;5020180;28;20065;-67
2023/12/19 09:05:10;;;;;;;12.45;8.05;;;8.50;99.90;;;;;;5020084;28;20048;-67
2023/12/19 09:07:36;;;;;;;11.15;8.88;;;8.60;99.90;;;;;;5024851;28;20400;-67
2023/12/19 09:10:02;;;;;;;10.13;9.02;;;8.60;99.90;;;;;;5006016;28;20060;-67
2023/12/19 09:12:27;;;;;;;11.35;8.93;;;8.60;99.90;;;;;;5019051;28;20053;-67
2023/12/19 09:14:53;;;;;;;13.65;9.50;;;8.60;99.90;;;;;;5019821;28;20041;-67
2023/12/19 09:17:19;;;;;;;12.30;9.15;;;8.60;99.90;;;;;;5018218;28;20626;-67
2023/12/19 09:19:44;;;;;;;11.02;8.68;;;8.60;99.90;;;;;;5019599;28;20365;-66
2023/12/19 09:22:10;;;;;;;11.90;9.00;;;8.60;99.90;;;;;;5019208;28;20127;-67
2023/12/19 09:24:36;;;;;;;11.45;9.18;;;8.70;99.90;;;;;;5021602;28;20076;-67
2023/12/19 09:27:02;;;;;;;11.43;9.40;;;8.70;99.90;;;;;;5015525;28;20065;-67
2023/12/19 09:29:28;;;;;;;15.05;9.70;;;8.70;99.90;;;;;;5016749;28;20041;-67
2023/12/19 09:31:54;;;;;;;11.52;9.15;;;8.70;99.90;;;;;;5015616;28;20047;-67
2023/12/19 09:34:20;;;;;;;13.90;9.65;;;8.70;99.90;;;;;;5016239;28;20052;-67
2023/12/19 09:36:45;;;;;;;11.88;9.38;;;8.70;99.90;;;;;;5021570;28;20037;-67
2023/12/19 09:39:14;;;;;;;10.50;8.90;;;8.70;99.90;;;;;;5018578;28;20037;-67
2023/12/19 09:41:41;;;;;;;12.63;9.27;;;8.70;99.90;;;;;;5020193;28;20042;-67
2023/12/19 09:44:07;;;;;;;11.77;9.25;;;8.70;99.90;;;;;;5017925;28;20042;-67
2023/12/19 09:46:33;;;;;;;11.50;9.05;;;8.70;99.90;;;;;;5023167;28;20056;-66
2023/12/19 09:49:00;;;;;;;10.52;8.48;;;8.70;99.90;;;;;;5018455;28;20042;-67
2023/12/19 09:51:32;;;;;;;9.23;8.25;;;8.70;99.90;;;;;;5018837;28;20114;-67
2023/12/19 09:54:01;;;;;;;10.95;8.63;;;8.80;99.90;;;;;;5020316;28;20496;-67
2023/12/19 09:56:28;;;;;;;9.60;8.13;;;8.70;99.90;;;;;;5015087;28;20048;-67
2023/12/19 09:59:00;;;;;;;10.95;8.10;;;8.80;99.90;;;;;;5021309;28;20068;-67
2023/12/19 10:01:26;;;;;;;9.20;7.85;;;9.50;99.90;;;;;;5015369;28;20045;-67
2023/12/19 10:03:55;;;;;;;11.23;8.05;;;8.80;99.90;;;;;;5017913;28;20040;-67
2023/12/19 10:06:22;;;;;;;12.13;8.55;;;8.80;99.90;;;;;;5017309;28;20052;-67
2023/12/19 10:08:51;;;;;;;11.07;8.50;;;8.80;99.90;;;;;;5018261;28;20092;-67
2023/12/19 10:11:17;;;;;;;10.63;9.13;;;9.00;99.90;;;;;;5019222;28;20095;-67
2023/12/19 10:13:43;;;;;;;12.95;9.40;;;8.80;99.90;;;;;;5001494;28;20042;-67
2023/12/19 10:16:17;;;;;;;11.68;9.25;;;8.90;99.90;;;;;;5035405;28;20042;-66
2023/12/19 10:18:52;;;;;;;10.68;8.55;;;8.80;99.90;;;;;;5018717;28;20551;-67
2023/12/19 10:21:20;;;;;;;10.75;7.97;;;8.80;99.90;;;;;;5020106;28;20037;-67
2023/12/19 10:23:46;;;;;;;11.13;8.57;;;8.80;99.90;;;;;;5018331;28;20488;-67
2023/12/19 10:26:12;;;;;;;9.60;8.05;;;8.80;99.90;;;;;;5019444;28;20045;-67
2023/12/19 10:28:39;;;;;;;11.43;8.18;;;8.80;99.90;;;;;;5019920;28;20541;-67
2023/12/19 10:31:17;;;;;;;9.27;7.47;;;8.80;99.90;;;;;;5017435;28;20451;-67
2023/12/19 10:33:50;;;;;;;10.40;8.27;;;8.80;99.90;;;;;;5021733;28;20044;-67
2023/12/19 10:36:23;;;;;;;9.45;8.07;;;8.80;99.90;;;;;;5017003;28;20042;-67
2023/12/19 10:38:49;;;;;;;10.02;8.25;;;8.90;99.90;;;;;;5016055;28;20407;-67
2023/12/19 10:41:25;;;;;;;10.40;8.27;;;8.90;99.90;;;;;;5005651;28;20064;-67
2023/12/19 10:43:52;;;;;;;;;;;8.90;99.90;;;;;;5020744;28;20527;-67
2023/12/19 10:46:24;;;;;;;9.43;7.25;;;8.80;99.90;;;;;;5021235;28;19944;-67
2023/12/19 10:48:51;;;;;;;10.65;7.78;;;8.90;99.90;;;;;;5019954;28;20776;-67
2023/12/19 10:51:33;;;;;;;8.77;7.63;;;8.90;99.90;;;;;;5021684;28;20065;-67
2023/12/19 10:54:04;;;;;;;8.48;7.57;;;8.90;99.90;;;;;;5023793;28;20124;-67
2023/12/19 10:56:40;;;;;;;7.28;6.55;;;8.90;99.90;;;;;;5021683;28;20044;-67
2023/12/19 10:59:10;;;;;;;9.68;7.32;;;8.90;99.90;;;;;;5024694;28;20046;-67
2023/12/19 11:01:40;;;;;;;8.40;7.22;;;8.90;99.90;;;;;;5017767;28;20042;-67
2023/12/19 11:04:22;;;;;;;7.60;6.60;;;8.90;99.90;;;;;;5023497;28;20037;-66
2023/12/19 11:06:55;;;;;;;7.45;6.68;;;9.10;99.90;;;;;;5021954;28;20054;-66
2023/12/19 11:09:31;;;;;;;8.00;7.20;;;9.00;99.90;;;;;;5022946;28;20124;-67
2023/12/19 11:11:58;;;;;;;8.38;6.95;;;9.70;99.90;;;;;;5022674;28;20033;-67
2023/12/19 11:14:24;;;;;;;9.20;7.80;;;8.90;99.90;;;;;;5021285;28;20057;-67
2023/12/19 11:16:56;;;;;;;8.80;7.88;;;8.90;99.90;;;;;;5025417;28;20119;-67
2023/12/19 11:19:29;;;;;;;9.77;8.63;;;8.90;99.90;;;;;;5020046;28;20030;-67
2023/12/19 11:22:39;;;;;;;9.40;8.25;;;8.90;99.90;;;;;;5024131;28;20038;-67
2023/12/19 11:25:26;;;;;;;8.82;7.93;;;9.00;99.90;;;;;;4988825;28;20061;-67
2023/12/19 11:28:00;;;;;;;9.20;8.10;;;8.90;99.90;;;;;;5024629;28;20137;-66
2023/12/19 11:30:43;;;;;;;8.38;7.50;;;9.00;99.90;;;;;;5023927;28;20054;-67
2023/12/19 11:33:13;;;;;;;10.15;8.70;;;8.90;99.90;;;;;;5021831;28;20096;-66
2023/12/19 11:35:41;;;;;;;9.88;8.88;;;8.90;99.90;;;;;;5022374;28;20061;-67
2023/12/19 11:38:25;;;;;;;11.57;9.02;;;8.90;99.90;;;;;;5019914;28;20060;-67
2023/12/19 11:40:56;;;;;;;11.10;9.82;;;8.90;99.90;;;;;;5022971;28;20053;-67
2023/12/19 11:43:48;;;;;;;10.35;9.27;;;8.90;99.90;;;;;;5023404;28;20049;-67
2023/12/19 11:46:15;;;;;;;10.75;9.65;;;9.00;99.90;;;;;;4997282;28;20489;-67
2023/12/19 11:48:51;;;;;;;10.15;9.20;;;9.00;99.90;;;;;;5025156;28;20057;-66
2023/12/19 11:51:42;;;;;;;10.98;8.95;;;9.00;99.90;;;;;;5018870;28;20053;-67
2023/12/19 11:54:10;;;;;;;11.18;10.00;;;9.00;99.90;;;;;;5019490;28;20049;-67
2023/12/19 11:56:39;;;;;;;12.27;10.35;;;9.00;99.90;;;;;;5021598;28;20056;-67
2023/12/19 11:59:04;;;;;;;12.45;10.80;;;9.20;99.90;;;;;;5019119;28;20060;-67
2023/12/19 12:01:39;;;;;;;10.40;9.43;;;9.00;99.90;;;;;;5024425;28;20040;-67
2023/12/19 12:04:10;;;;;;;10.30;9.25;;;8.90;99.90;;;;;;5021171;28;20053;-67
2023/12/19 12:06:38;;;;;;;10.40;9.38;;;9.00;99.90;;;;;;5020614;28;20042;-67
2023/12/19 12:09:06;;;;;;;10.48;9.43;;;9.00;99.90;;;;;;5006364;28;20041;-67
2023/12/19 12:11:54;;;;;;;10.07;9.00;;;9.70;99.90;;;;;;5021815;28;20040;-67
2023/12/19 12:14:21;;;;;;;9.38;8.38;;;9.10;99.90;;;;;;5039364;28;20116;-67
2023/12/19 12:16:47;;;;;;;9.00;8.10;;;9.10;99.90;;;;;;5021045;28;20124;-67
2023/12/19 12:19:14;;;;;;;9.35;8.45;;;9.00;99.90;;;;;;5018489;28;20536;-67
2023/12/19 12:21:47;;;;;;;8.35;7.50;;;9.10;99.90;;;;;;5023243;28;20504;-67
2023/12/19 12:24:20;;;;;;;8.07;7.30;;;9.10;99.90;;;;;;5018538;28;20053;-67
2023/12/19 12:26:49;;;;;;;7.70;7.00;;;9.10;99.90;;;;;;5018929;28;20042;-67
2023/12/19 12:29:17;;;;;;;7.60;6.60;;;9.10;99.90;;;;;;5015811;28;20140;-67
2023/12/19 12:31:44;;;;;;;6.25;5.70;;;9.10;99.90;;;;;;5022785;28;20423;-67
2023/12/19 12:34:09;;;;;;;6.22;5.57;;;9.10;99.90;;;;;;5018196;28;20087;-67
2023/12/19 12:36:35;;;;;;;6.25;5.65;;;9.10;99.90;;;;;;5019851;28;20081;-67
2023/12/19 12:39:01;;;;;;;5.43;4.93;;;9.10;99.90;;;;;;5017995;28;20053;-67
2023/12/19 12:41:27;;;;;;;7.15;5.63;;;9.10;99.90;;;;;;5017332;28;20073;-67
2023/12/19 12:43:55;;;;;;;6.32;5.72;;;9.20;99.90;;;;;;5019767;28;20104;-67
2023/12/19 12:46:24;;;;;;;5.90;5.30;;;9.10;99.90;;;;;;5019990;28;20045;-67